Time;durP1;ratioP1;P1;durP2;ratioP2;P2;SDS_P1;SDS_P2;PMS_P1;PMS_P2;Temp;Humidity;BMP_temperature;BMP_pressure;BME280_temperature;BME280_humidity;BME280_pressure;Samples;Min_cycle;Max_cycle;Signal;HPM_P1;HPM_P2
2021/10/13 00:00:51;;;;;;;5.53;4.63;;;;;;;6.41;100.00;101293.44;4978248;28;20597;-73
2021/10/13 00:03:19;;;;;;;10.47;5.77;;;;;;;6.53;100.00;101295.09;4977504;28;20197;-73
2021/10/13 00:05:45;;;;;;;27.27;6.20;;;;;;;6.59;100.00;101294.19;4976767;28;20225;-73
2021/10/13 00:08:10;;;;;;;34.07;6.43;;;;;;;6.47;100.00;101295.19;5009626;28;20184;-73
2021/10/13 00:10:36;;;;;;;19.90;5.83;;;;;;;6.42;100.00;101286.16;4996281;28;20746;-72
2021/10/13 00:13:03;;;;;;;23.73;5.93;;;;;;;6.45;100.00;101301.88;4981060;28;20185;-73
2021/10/13 00:15:29;;;;;;;49.30;6.70;;;;;;;6.24;100.00;101291.59;4980216;28;20221;-73
2021/10/13 00:17:55;;;;;;;20.97;6.27;;;;;;;6.42;100.00;101305.03;5013451;28;20193;-73
2021/10/13 00:20:22;;;;;;;26.57;6.03;;;;;;;6.55;100.00;101301.06;4996018;28;20255;-73
2021/10/13 00:22:48;;;;;;;22.27;5.93;;;;;;;6.83;100.00;101295.03;5013428;28;20181;-73
2021/10/13 00:25:13;;;;;;;16.43;5.33;;;;;;;6.86;100.00;101306.19;4979635;28;20630;-75
2021/10/13 00:27:39;;;;;;;22.30;6.17;;;;;;;6.81;100.00;101311.47;4996878;28;20185;-73
2021/10/13 00:30:05;;;;;;;12.63;4.90;;;;;;;6.89;100.00;101308.44;4996349;28;20205;-73
2021/10/13 00:32:32;;;;;;;14.77;5.47;;;;;;;6.88;100.00;101304.09;4977229;28;20206;-73
2021/10/13 00:34:58;;;;;;;12.37;4.70;;;;;;;6.85;100.00;101303.72;4987412;28;20568;-74
2021/10/13 00:37:23;;;;;;;16.93;5.37;;;;;;;6.88;100.00;101303.28;4996077;28;20213;-73
2021/10/13 00:39:51;;;;;;;9.30;5.20;;;;;;;6.82;100.00;101299.63;4996268;28;20225;-73
2021/10/13 00:42:19;;;;;;;23.47;6.33;;;;;;;6.90;100.00;101293.88;5011654;28;20236;-74
2021/10/13 00:44:49;;;;;;;33.07;6.20;;;;;;;7.03;100.00;101289.09;4961760;28;20268;-72
2021/10/13 00:47:20;;;;;;;44.73;7.57;;;;;;;7.03;100.00;101283.69;4963256;28;20220;-73
2021/10/13 00:49:45;;;;;;;53.23;7.17;;;;;;;7.04;100.00;101292.59;4980531;28;20209;-73
2021/10/13 00:52:12;;;;;;;29.37;6.23;;;;;;;6.97;100.00;101298.09;4979560;28;20279;-73
2021/10/13 00:54:38;;;;;;;43.60;6.57;;;;;;;6.83;100.00;101297.72;4996309;28;20715;-74
2021/10/13 00:57:03;;;;;;;75.13;6.77;;;;;;;6.75;100.00;101307.00;4995907;28;20220;-73
2021/10/13 00:59:31;;;;;;;89.10;7.87;;;;;;;6.91;100.00;101312.53;4964066;28;20205;-73
2021/10/13 01:02:03;;;;;;;34.37;5.80;;;;;;;6.78;100.00;101311.94;5011930;28;20263;-73
2021/10/13 01:04:29;;;;;;;30.93;5.60;;;;;;;6.70;100.00;101312.28;5012612;28;20181;-73
2021/10/13 01:07:16;;;;;;;57.80;6.20;;;;;;;6.71;100.00;101308.50;5012021;28;20460;-73
2021/10/13 01:09:51;;;;;;;37.87;5.47;;;;;;;6.69;100.00;101307.94;4992382;28;20205;-73
2021/10/13 01:12:51;;;;;;;33.27;5.47;;;;;;;6.72;100.00;101304.78;4980268;28;20748;-74
2021/10/13 01:15:38;;;;;;;56.23;6.83;;;;;;;6.88;100.00;101304.09;4975849;28;20221;-73
2021/10/13 01:18:22;;;;;;;40.13;5.70;;;;;;;7.01;100.00;101304.72;4998168;28;20181;-74
2021/10/13 01:20:57;;;;;;;29.03;5.53;;;;;;;6.74;100.00;101310.75;4995003;28;20338;-73
2021/10/13 01:23:52;;;;;;;36.57;5.43;;;;;;;6.72;100.00;101307.47;4992501;28;20177;-73
2021/10/13 01:26:42;;;;;;;41.57;5.77;;;;;;;6.79;100.00;101310.88;4978214;28;20233;-73
2021/10/13 01:29:10;;;;;;;45.67;6.17;;;;;;;6.97;100.00;101311.59;5006208;28;20178;-74
2021/10/13 01:31:43;;;;;;;44.20;6.00;;;;;;;7.06;100.00;101299.41;4978762;28;20319;-73
2021/10/13 01:34:25;;;;;;;103.67;9.07;;;;;;;6.88;100.00;101304.91;4975726;28;20332;-73
2021/10/13 01:37:00;;;;;;;31.70;5.50;;;;;;;6.75;100.00;101312.41;4976443;28;20647;-72
2021/10/13 01:39:26;;;;;;;50.37;5.73;;;;;;;6.78;100.00;101316.53;4976848;28;20228;-73
2021/10/13 01:41:51;;;;;;;76.63;6.97;;;;;;;6.66;100.00;101313.78;4986057;28;20251;-73
2021/10/13 01:44:17;;;;;;;22.13;5.07;;;;;;;6.75;100.00;101309.69;4976359;28;20208;-72
2021/10/13 01:46:50;;;;;;;69.07;6.70;;;;;;;6.63;100.00;101306.16;4959065;28;20225;-73
2021/10/13 01:49:15;;;;;;;50.90;6.37;;;;;;;6.44;100.00;101309.13;4976085;28;20237;-72
2021/10/13 01:51:44;;;;;;;30.10;4.90;;;;;;;6.50;100.00;101315.50;4959147;28;20317;-73
2021/10/13 01:54:09;;;;;;;17.07;4.83;;;;;;;6.66;100.00;101312.97;4991761;28;20288;-73
2021/10/13 01:56:35;;;;;;;24.83;5.00;;;;;;;6.68;100.00;101319.75;4991468;28;20226;-73
2021/10/13 01:59:03;;;;;;;20.00;5.90;;;;;;;6.78;100.00;101321.91;4998515;28;20243;-73
2021/10/13 02:01:30;;;;;;;38.87;6.27;;;;;;;6.84;100.00;101327.19;4962294;28;20580;-73
2021/10/13 02:03:58;;;;;;;47.17;6.53;;;;;;;6.87;100.00;101326.75;4975282;28;20202;-73
2021/10/13 02:06:26;;;;;;;19.83;5.40;;;;;;;6.76;100.00;101329.41;4959538;28;20304;-73
2021/10/13 02:08:51;;;;;;;46.50;6.97;;;;;;;6.83;100.00;101336.38;4959418;28;20193;-72
2021/10/13 02:11:33;;;;;;;17.33;4.60;;;;;;;6.63;100.00;101338.53;4978123;28;20612;-73
2021/10/13 02:14:03;;;;;;;22.83;5.67;;;;;;;6.73;100.00;101333.41;5010619;28;20185;-72
2021/10/13 02:16:29;;;;;;;20.73;5.57;;;;;;;6.75;100.00;101338.56;4994674;28;20238;-72
2021/10/13 02:18:55;;;;;;;25.97;6.43;;;;;;;6.86;100.00;101341.28;4959847;28;20169;-73
2021/10/13 02:21:21;;;;;;;11.57;5.43;;;;;;;6.86;100.00;101344.00;4990967;28;20245;-73
2021/10/13 02:23:46;;;;;;;30.63;6.03;;;;;;;6.96;100.00;101338.88;4978014;28;20197;-73
2021/10/13 02:26:17;;;;;;;24.03;5.50;;;;;;;6.88;100.00;101350.78;4977695;28;20220;-73
2021/10/13 02:28:46;;;;;;;34.97;6.73;;;;;;;6.75;100.00;101350.19;4992220;28;20182;-73
2021/10/13 02:31:14;;;;;;;9.73;4.83;;;;;;;6.52;100.00;101350.13;4977764;28;20231;-73
2021/10/13 02:33:39;;;;;;;7.60;5.20;;;;;;;6.60;100.00;101352.47;4978675;28;20650;-73
2021/10/13 02:36:05;;;;;;;13.40;5.07;;;;;;;6.74;100.00;101348.56;4993899;28;20225;-72
2021/10/13 02:38:31;;;;;;;20.87;5.87;;;;;;;6.54;100.00;101358.00;4994303;28;20177;-73
2021/10/13 02:40:57;;;;;;;11.60;4.70;;;;;;;6.55;100.00;101362.31;4977037;28;20239;-74
2021/10/13 02:43:23;;;;;;;17.33;5.73;;;;;;;6.59;100.00;101361.66;4958719;28;20186;-73
2021/10/13 02:46:17;;;;;;;46.73;6.20;;;;;;;6.62;100.00;101361.16;4990304;28;20618;-73
2021/10/13 02:48:47;;;;;;;29.37;6.10;;;;;;;6.61;100.00;101364.09;5009594;28;20804;-73
2021/10/13 02:51:21;;;;;;;20.10;5.70;;;;;;;6.58;100.00;101365.38;4971050;28;20236;-73
2021/10/13 02:54:25;;;;;;;28.97;5.23;;;;;;;6.47;100.00;101372.63;4974886;28;20178;-73
2021/10/13 02:56:59;;;;;;;43.47;6.07;;;;;;;6.33;100.00;101371.13;4977283;28;20225;-73
2021/10/13 02:59:42;;;;;;;7.60;4.60;;;;;;;6.51;100.00;101370.03;4962723;28;20201;-73
2021/10/13 03:02:15;;;;;;;24.23;4.80;;;;;;;6.32;100.00;101369.50;4993696;28;20872;-73
2021/10/13 03:04:46;;;;;;;19.93;4.93;;;;;;;6.22;100.00;101366.50;4974907;28;20198;-72
2021/10/13 03:07:18;;;;;;;30.50;4.80;;;;;;;6.01;100.00;101366.97;4968975;28;20216;-72
2021/10/13 03:09:57;;;;;;;17.93;4.57;;;;;;;6.17;100.00;101363.66;4974163;28;20219;-73
2021/10/13 03:12:25;;;;;;;18.60;4.60;;;;;;;6.23;100.00;101360.91;4992929;28;20217;-74
2021/10/13 03:14:54;;;;;;;34.40;5.43;;;;;;;6.34;100.00;101362.81;4977986;28;20295;-74
2021/10/13 03:17:20;;;;;;;32.57;4.60;;;;;;;6.32;100.00;101364.13;4993668;28;20220;-74
2021/10/13 03:19:48;;;;;;;52.17;5.17;;;;;;;6.33;100.00;101361.16;4977188;28;20209;-71
2021/10/13 03:22:13;;;;;;;20.93;4.60;;;;;;;6.22;100.00;101369.22;4988514;28;20225;-72
2021/10/13 03:24:42;;;;;;;57.40;5.73;;;;;;;6.25;100.00;101360.66;4976915;28;20725;-72
2021/10/13 03:27:12;;;;;;;92.20;7.80;;;;;;;6.27;100.00;101366.66;4977232;28;20227;-73
2021/10/13 03:29:41;;;;;;;24.57;4.37;;;;;;;6.16;100.00;101378.22;5009636;28;20197;-74
2021/10/13 03:32:07;;;;;;;39.70;5.00;;;;;;;6.17;100.00;101369.91;4993080;28;20232;-73
2021/10/13 03:34:33;;;;;;;54.93;4.97;;;;;;;5.87;100.00;101370.06;4961430;28;20177;-72
2021/10/13 03:37:03;;;;;;;32.73;4.17;;;;;;;6.13;100.00;101368.72;4973989;28;20694;-72
2021/10/13 03:39:28;;;;;;;28.93;4.47;;;;;;;6.10;100.00;101376.41;4973620;28;20201;-74
2021/10/13 03:41:54;;;;;;;29.90;4.67;;;;;;;6.06;100.00;101366.28;4984351;28;20216;-73
2021/10/13 03:44:22;;;;;;;21.67;4.10;;;;;;;6.14;100.00;101375.72;4977516;28;20699;-73
2021/10/13 03:46:50;;;;;;;31.93;4.13;;;;;;;6.08;100.00;101381.22;4992983;28;20247;-72
2021/10/13 03:49:15;;;;;;;24.73;4.30;;;;;;;5.98;100.00;101383.59;4977567;28;20205;-74
2021/10/13 03:51:41;;;;;;;46.27;4.83;;;;;;;5.98;100.00;101383.59;5009251;28;20779;-74
2021/10/13 03:54:09;;;;;;;34.20;4.13;;;;;;;6.03;100.00;101389.16;4993822;28;20228;-73
2021/10/13 03:56:34;;;;;;;22.17;3.53;;;;;;;5.79;100.00;101395.44;4993213;28;20291;-74
2021/10/13 03:59:00;;;;;;;64.27;5.37;;;;;;;5.64;100.00;101391.44;4987603;28;20182;-72
2021/10/13 04:01:28;;;;;;;16.63;3.33;;;;;;;5.76;100.00;101405.84;4986106;28;20580;-73
2021/10/13 04:04:00;;;;;;;30.70;3.77;;;;;;;5.72;100.00;101403.78;4978354;28;20197;-73
2021/10/13 04:06:26;;;;;;;42.17;4.07;;;;;;;5.61;100.00;101407.22;5005635;28;20238;-74
2021/10/13 04:08:51;;;;;;;41.57;4.27;;;;;;;5.75;100.00;101410.41;4992119;28;20200;-73
2021/10/13 04:11:19;;;;;;;43.87;4.03;;;;;;;5.72;100.00;101399.22;4991476;28;20232;-74
2021/10/13 04:13:45;;;;;;;52.37;3.90;;;;;;;5.63;100.00;101407.81;4991315;28;20177;-73
2021/10/13 04:16:13;;;;;;;43.20;4.17;;;;;;;5.59;100.00;101404.72;5008138;28;20282;-73
2021/10/13 04:18:38;;;;;;;30.40;3.60;;;;;;;5.44;100.00;101406.13;4992275;28;20212;-77
2021/10/13 04:21:07;;;;;;;26.33;3.47;;;;;;;5.46;100.00;101412.13;4973203;28;20225;-76
2021/10/13 04:23:32;;;;;;;50.90;4.70;;;;;;;5.39;100.00;101414.84;4977343;28;20217;-74
2021/10/13 04:25:58;;;;;;;36.60;4.00;;;;;;;5.46;100.00;101404.84;4960870;28;20221;-74
2021/10/13 04:28:23;;;;;;;49.63;4.40;;;;;;;5.44;100.00;101408.81;4977184;28;20678;-73
2021/10/13 04:30:49;;;;;;;44.60;4.50;;;;;;;5.34;100.00;101399.56;4963185;28;20225;-72
2021/10/13 04:33:17;;;;;;;78.40;6.20;;;;;;;5.26;100.00;101408.75;4994843;28;20173;-73
2021/10/13 04:35:47;;;;;;;40.90;4.80;;;;;;;5.34;100.00;101408.47;5010970;28;20246;-75
2021/10/13 04:38:15;;;;;;;38.67;4.33;;;;;;;5.24;100.00;101410.84;4993499;28;20193;-72
2021/10/13 04:40:40;;;;;;;56.37;5.23;;;;;;;5.21;100.00;101411.28;5012269;28;20235;-72
2021/10/13 04:43:06;;;;;;;37.43;4.67;;;;;;;5.22;100.00;101402.16;4996427;28;20231;-71
2021/10/13 04:45:31;;;;;;;41.13;4.70;;;;;;;5.33;100.00;101398.75;4996026;28;20232;-72
2021/10/13 04:47:57;;;;;;;38.40;4.50;;;;;;;5.32;100.00;101402.50;4996369;28;20185;-73
2021/10/13 04:50:22;;;;;;;43.67;5.70;;;;;;;5.37;100.00;101400.78;4995649;28;20700;-70
2021/10/13 04:52:48;;;;;;;40.23;7.37;;;;;;;5.33;100.00;101406.84;4976877;28;20186;-73
2021/10/13 04:55:15;;;;;;;18.43;5.07;;;;;;;5.33;100.00;101409.53;4990629;28;20209;-74
2021/10/13 04:57:41;;;;;;;16.40;4.90;;;;;;;5.31;100.00;101400.00;4993034;28;20698;-74
2021/10/13 05:00:08;;;;;;;47.77;5.03;;;;;;;5.27;100.00;101405.00;4992814;28;20216;-75
2021/10/13 05:02:33;;;;;;;36.57;7.30;;;;;;;5.43;100.00;101401.78;4995312;28;20221;-73
2021/10/13 05:04:59;;;;;;;61.83;5.50;;;;;;;5.20;100.00;101409.66;4996183;28;20189;-72
2021/10/13 05:07:27;;;;;;;51.07;5.20;;;;;;;5.22;100.00;101406.72;4992800;28;20220;-74
2021/10/13 05:09:52;;;;;;;36.40;5.33;;;;;;;5.22;100.00;101409.41;4976252;28;20252;-71
2021/10/13 05:12:20;;;;;;;61.10;6.20;;;;;;;5.25;100.00;101407.09;4994174;28;20633;-73
2021/10/13 05:14:50;;;;;;;36.83;5.07;;;;;;;5.24;100.00;101405.47;4996094;28;20231;-76
2021/10/13 05:17:18;;;;;;;60.13;6.00;;;;;;;5.29;100.00;101412.88;4968363;28;20217;-77
2021/10/13 05:19:44;;;;;;;66.93;8.60;;;;;;;5.27;100.00;101415.78;4995990;28;20212;-77
2021/10/13 05:22:09;;;;;;;54.00;5.93;;;;;;;5.29;100.00;101419.06;4978342;28;20224;-73
2021/10/13 05:24:39;;;;;;;62.67;5.70;;;;;;;5.25;100.00;101409.78;4976638;28;20671;-73
2021/10/13 05:27:05;;;;;;;34.23;6.70;;;;;;;5.13;100.00;101418.81;5026081;28;20269;-73
2021/10/13 05:29:38;;;;;;;32.73;5.70;;;;;;;5.12;100.00;101417.97;4985840;28;20201;-73
2021/10/13 05:32:04;;;;;;;46.07;6.07;;;;;;;5.28;100.00;101422.00;4979035;28;20296;-73
2021/10/13 05:34:31;;;;;;;49.00;5.80;;;;;;;5.28;100.00;101420.13;5011343;28;20193;-72
2021/10/13 05:36:57;;;;;;;37.10;5.77;;;;;;;5.24;100.00;101420.78;5002058;28;20223;-73
2021/10/13 05:39:26;;;;;;;27.07;5.40;;;;;;;5.26;100.00;101424.09;5006319;28;20595;-73
2021/10/13 05:41:54;;;;;;;28.87;5.33;;;;;;;5.30;100.00;101426.13;4975229;28;20221;-73
2021/10/13 05:44:19;;;;;;;27.23;6.33;;;;;;;5.25;100.00;101438.59;4993407;28;20234;-73
2021/10/13 05:46:45;;;;;;;24.67;6.50;;;;;;;5.39;100.00;101433.72;4993209;28;20232;-73
2021/10/13 05:49:10;;;;;;;41.93;6.43;;;;;;;5.44;100.00;101427.69;4989680;28;20192;-73
2021/10/13 05:51:36;;;;;;;36.53;6.60;;;;;;;5.33;100.00;101438.31;4973688;28;20233;-74
2021/10/13 05:54:02;;;;;;;22.60;6.40;;;;;;;5.36;100.00;101450.28;4958737;28;20193;-72
2021/10/13 05:56:27;;;;;;;29.33;6.37;;;;;;;5.47;100.00;101454.16;4991079;28;20236;-72
2021/10/13 05:58:54;;;;;;;23.33;6.67;;;;;;;5.48;100.00;101450.44;5006964;28;20188;-72
2021/10/13 06:01:23;;;;;;;31.93;11.10;;;;;;;5.64;100.00;101449.84;5010955;28;20261;-72
2021/10/13 06:03:48;;;;;;;23.43;10.07;;;;;;;5.74;100.00;101450.22;4991569;28;20204;-72
2021/10/13 06:06:15;;;;;;;18.40;7.47;;;;;;;5.81;100.00;101458.03;4975237;28;20666;-72
2021/10/13 06:08:46;;;;;;;14.73;6.50;;;;;;;5.76;100.00;101459.72;4975354;28;20185;-73
2021/10/13 06:11:12;;;;;;;20.30;6.50;;;;;;;5.53;100.00;101469.44;4994577;28;20231;-72
2021/10/13 06:13:43;;;;;;;17.20;6.70;;;;;;;5.70;100.00;101454.38;4994577;28;20181;-73
2021/10/13 06:16:14;;;;;;;30.93;6.57;;;;;;;5.63;100.00;101461.69;4994996;28;20227;-72
2021/10/13 06:18:43;;;;;;;26.70;7.07;;;;;;;5.66;100.00;101461.22;4995861;28;20196;-73
2021/10/13 06:21:10;;;;;;;41.00;8.03;;;;;;;5.70;100.00;101462.47;4995207;28;20331;-72
2021/10/13 06:23:36;;;;;;;31.37;7.37;;;;;;;5.69;100.00;101471.59;5010883;28;20563;-72
2021/10/13 06:26:04;;;;;;;26.90;7.43;;;;;;;5.91;100.00;101458.31;4994702;28;20232;-72
2021/10/13 06:28:31;;;;;;;14.57;7.13;;;;;;;5.97;100.00;101468.25;4990778;28;20279;-72
2021/10/13 06:30:57;;;;;;;25.63;7.57;;;;;;;5.98;100.00;101474.44;4990684;28;20572;-72
2021/10/13 06:33:27;;;;;;;17.07;7.13;;;;;;;5.98;100.00;101485.22;5010666;28;20177;-72
2021/10/13 06:35:53;;;;;;;44.97;8.20;;;;;;;6.04;100.00;101482.47;5009623;28;20359;-72
2021/10/13 06:38:21;;;;;;;16.37;7.23;;;;;;;6.11;100.00;101477.81;4993861;28;20177;-72
2021/10/13 06:40:46;;;;;;;26.90;7.57;;;;;;;6.17;100.00;101487.72;4977608;28;20228;-73
2021/10/13 06:43:15;;;;;;;27.83;7.40;;;;;;;6.20;100.00;101489.97;4994304;28;20674;-73
2021/10/13 06:45:43;;;;;;;18.63;7.53;;;;;;;6.21;100.00;101486.25;4977514;28;20226;-73
2021/10/13 06:48:10;;;;;;;26.63;8.30;;;;;;;6.26;100.00;101494.47;5010086;28;20239;-72
2021/10/13 06:50:36;;;;;;;41.90;8.90;;;;;;;6.03;100.00;101493.50;5009821;28;20220;-72
2021/10/13 06:53:03;;;;;;;23.10;8.50;;;;;;;6.16;100.00;101495.00;4993543;28;20537;-73
2021/10/13 06:55:29;;;;;;;30.83;8.00;;;;;;;6.18;100.00;101497.47;4977519;28;20221;-72
2021/10/13 06:57:56;;;;;;;24.73;8.30;;;;;;;6.25;100.00;101492.84;5010392;28;20185;-72
2021/10/13 07:00:22;;;;;;;29.87;8.00;;;;;;;6.14;100.00;101491.69;4973887;28;20289;-72
2021/10/13 07:02:47;;;;;;;59.47;8.50;;;;;;;6.23;100.00;101497.63;4958611;28;20208;-73
2021/10/13 07:05:16;;;;;;;56.30;7.70;;;;;;;6.20;100.00;101500.75;4990264;28;20190;-73
2021/10/13 07:07:47;;;;;;;35.57;8.13;;;;;;;6.32;100.00;101502.50;4990429;28;20174;-73
2021/10/13 07:10:12;;;;;;;48.37;8.53;;;;;;;6.46;100.00;101503.19;4990279;28;20208;-73
2021/10/13 07:12:40;;;;;;;47.27;8.50;;;;;;;6.28;100.00;101500.47;4990348;28;20170;-74
2021/10/13 07:15:06;;;;;;;40.83;8.40;;;;;;;6.47;100.00;101502.97;5009621;28;20659;-72
2021/10/13 07:17:39;;;;;;;30.80;8.97;;;;;;;6.61;100.00;101507.13;5011302;28;20181;-73
2021/10/13 07:20:05;;;;;;;19.30;7.70;;;;;;;6.60;100.00;101514.41;4993318;28;20674;-73
2021/10/13 07:22:31;;;;;;;53.47;9.00;;;;;;;6.79;100.00;101507.94;4993242;28;20232;-73
2021/10/13 07:24:57;;;;;;;28.33;8.27;;;;;;;6.79;100.00;101516.03;5010110;28;20177;-72
2021/10/13 07:27:23;;;;;;;39.60;8.07;;;;;;;6.88;100.00;101516.56;4977541;28;20274;-73
2021/10/13 07:29:56;;;;;;;34.27;8.03;;;;;;;6.86;100.00;101516.78;5009559;28;20213;-74
2021/10/13 07:32:23;;;;;;;27.30;7.90;;;;;;;7.03;100.00;101518.66;4978976;28;20596;-73
2021/10/13 07:34:53;;;;;;;83.90;8.27;;;;;;;6.93;100.00;101517.53;4990044;28;20186;-73
2021/10/13 07:37:19;;;;;;;28.60;6.93;;;;;;;6.95;100.00;101518.13;4991495;28;20225;-73
2021/10/13 07:39:45;;;;;;;20.30;7.27;;;;;;;7.20;100.00;101526.91;4995828;28;20256;-73
2021/10/13 07:42:11;;;;;;;19.13;6.97;;;;;;;7.34;100.00;101518.41;4976845;28;20228;-73
2021/10/13 07:44:39;;;;;;;24.13;8.13;;;;;;;7.21;100.00;101533.97;4978143;28;20185;-72
2021/10/13 07:47:04;;;;;;;12.57;6.80;;;;;;;7.23;100.00;101526.47;4960990;28;20220;-73
2021/10/13 07:49:32;;;;;;;47.03;7.60;;;;;;;7.19;100.00;101527.97;4973948;28;20220;-73
2021/10/13 07:52:02;;;;;;;21.97;6.60;;;;;;;7.07;100.00;101527.94;4974369;28;20222;-72
2021/10/13 07:54:28;;;;;;;31.13;7.43;;;;;;;7.47;100.00;101529.84;4958350;28;20551;-73
2021/10/13 07:56:53;;;;;;;36.27;7.13;;;;;;;7.41;100.00;101536.16;4990765;28;20232;-73
2021/10/13 07:59:19;;;;;;;45.13;8.07;;;;;;;7.13;100.00;101537.00;4980413;28;20212;-72
2021/10/13 08:01:49;;;;;;;16.23;7.17;;;;;;;7.46;100.00;101538.19;4996692;28;20239;-73
2021/10/13 08:04:15;;;;;;;14.13;9.50;;;;;;;7.78;100.00;101538.50;4981864;28;20192;-73
2021/10/13 08:06:41;;;;;;;40.40;9.80;;;;;;;7.77;100.00;101544.97;4980598;28;20275;-72
2021/10/13 08:09:06;;;;;;;25.90;11.13;;;;;;;7.82;100.00;101536.13;4996781;28;20200;-72
2021/10/13 08:11:34;;;;;;;19.67;9.67;;;;;;;7.86;100.00;101543.56;5012793;28;20217;-73
2021/10/13 08:13:59;;;;;;;14.43;10.50;;;;;;;8.10;100.00;101542.56;4981132;28;20193;-73
2021/10/13 08:16:25;;;;;;;12.53;8.63;;;;;;;8.31;100.00;101540.06;4980436;28;20290;-73
2021/10/13 08:18:51;;;;;;;23.50;8.03;;;;;;;7.93;100.00;101543.44;4997288;28;20193;-72
2021/10/13 08:21:21;;;;;;;20.23;7.77;;;;;;;8.13;100.00;101542.94;4961209;28;20232;-73
2021/10/13 08:23:46;;;;;;;18.20;7.97;;;;;;;8.42;100.00;101535.72;4994196;28;20200;-72
2021/10/13 08:26:14;;;;;;;11.87;7.30;;;;;;;8.68;100.00;101538.75;5001036;28;20644;-74
2021/10/13 08:28:40;;;;;;;19.30;8.57;;;;;;;8.70;100.00;101542.88;4996502;28;20570;-72
2021/10/13 08:31:06;;;;;;;20.27;9.27;;;;;;;8.65;100.00;101547.38;4970398;28;20226;-72
2021/10/13 08:33:31;;;;;;;18.43;8.63;;;;;;;8.94;100.00;101536.34;4993558;28;20267;-73
2021/10/13 08:35:57;;;;;;;14.93;8.70;;;;;;;8.95;100.00;101538.78;5003973;28;20248;-72
2021/10/13 08:38:25;;;;;;;19.70;8.27;;;;;;;8.93;100.00;101538.22;4996463;28;20304;-72
2021/10/13 08:40:53;;;;;;;16.70;7.83;;;;;;;8.88;100.00;101540.00;4995869;28;20244;-73
2021/10/13 08:43:19;;;;;;;15.97;7.90;;;;;;;8.84;100.00;101542.38;5012215;28;20264;-73
2021/10/13 08:45:45;;;;;;;12.63;8.33;;;;;;;9.07;100.00;101547.72;4992483;28;20299;-73
2021/10/13 08:48:10;;;;;;;9.97;7.40;;;;;;;9.20;100.00;101547.44;4993167;28;20675;-72
2021/10/13 08:50:40;;;;;;;15.67;7.67;;;;;;;9.12;100.00;101542.41;4976221;28;20225;-72
2021/10/13 08:53:11;;;;;;;20.43;8.10;;;;;;;8.82;100.00;101545.56;4992847;28;20224;-73
2021/10/13 08:55:38;;;;;;;21.23;8.00;;;;;;;8.89;100.00;101536.22;4987639;28;20615;-72
2021/10/13 08:58:18;;;;;;;12.17;7.33;;;;;;;9.07;100.00;101533.38;4996802;28;20204;-72
2021/10/13 09:01:07;;;;;;;10.53;8.20;;;;;;;8.82;100.00;101549.09;4976952;28;20229;-72
2021/10/13 09:03:34;;;;;;;12.40;7.60;;;;;;;8.92;100.00;101539.28;4978738;28;20217;-73
2021/10/13 09:06:15;;;;;;;10.63;7.57;;;;;;;8.88;100.00;101543.56;4992605;28;20229;-72
2021/10/13 09:08:54;;;;;;;10.90;8.77;;;;;;;9.49;100.00;101544.47;4976150;28;20219;-75
2021/10/13 09:11:51;;;;;;;10.43;8.20;;;;;;;9.36;100.00;101547.50;4999357;28;20315;-71
2021/10/13 09:14:21;;;;;;;8.97;7.93;;;;;;;9.54;100.00;101549.16;5016937;28;20209;-72
2021/10/13 09:16:57;;;;;;;9.37;7.97;;;;;;;9.76;100.00;101549.06;4995998;28;20232;-72
2021/10/13 09:19:25;;;;;;;10.33;9.17;;;;;;;10.27;100.00;101551.53;5012522;28;20197;-72
2021/10/13 09:21:53;;;;;;;8.90;8.10;;;;;;;9.98;100.00;101537.25;4995684;28;20221;-72
2021/10/13 09:24:20;;;;;;;11.83;8.90;;;;;;;10.12;100.00;101540.44;5012122;28;20184;-72
2021/10/13 09:26:48;;;;;;;8.67;7.87;;;;;;;10.42;100.00;101544.44;4960836;28;20213;-72
2021/10/13 09:29:16;;;;;;;8.97;7.20;;;;;;;10.54;100.00;101543.25;4976275;28;20686;-72
2021/10/13 09:31:41;;;;;;;7.80;7.10;;;;;;;10.47;100.00;101545.34;4999333;28;20244;-72
2021/10/13 09:34:11;;;;;;;8.43;7.23;;;;;;;10.71;100.00;101544.03;5009576;28;20554;-72
2021/10/13 09:36:41;;;;;;;7.27;6.60;;;;;;;11.03;100.00;101548.56;5012129;28;20279;-74
2021/10/13 09:39:09;;;;;;;7.07;6.03;;;;;;;11.23;100.00;101555.06;4979426;28;20654;-72
2021/10/13 09:42:00;;;;;;;6.70;6.10;;;;;;;11.37;100.00;101553.59;4995000;28;20225;-72
2021/10/13 09:44:27;;;;;;;6.17;5.67;;;;;;;11.58;100.00;101555.47;5011654;28;20197;-72
2021/10/13 09:47:00;;;;;;;9.17;5.90;;;;;;;11.37;100.00;101550.03;4965477;28;20312;-73
2021/10/13 09:49:36;;;;;;;5.40;4.70;;;;;;;11.34;100.00;101545.94;4976026;28;20231;-72
2021/10/13 09:52:12;;;;;;;4.70;4.30;;;;;;;11.29;100.00;101537.72;4991141;28;20753;-72
2021/10/13 09:54:41;;;;;;;5.00;4.60;;;;;;;11.29;100.00;101542.34;4992052;28;20192;-72
2021/10/13 09:57:42;;;;;;;6.97;5.87;;;;;;;11.43;100.00;101547.13;4988583;28;20225;-73
2021/10/13 10:00:11;;;;;;;4.47;4.07;;;;;;;11.40;100.00;101541.38;4994925;28;20211;-72
2021/10/13 10:02:57;;;;;;;4.47;4.10;;;;;;;11.75;100.00;101542.56;4985114;28;20600;-73
2021/10/13 10:05:29;;;;;;;5.83;4.30;;;;;;;11.43;100.00;101546.28;4974810;28;20282;-73
2021/10/13 10:08:04;;;;;;;5.00;3.67;;;;;;;11.54;100.00;101547.00;4979503;28;20181;-73
2021/10/13 10:10:30;;;;;;;4.40;3.73;;;;;;;11.41;100.00;101541.13;5010288;28;20224;-72
2021/10/13 10:13:07;;;;;;;4.83;3.37;;;;;;;11.33;100.00;101549.72;5010649;28;20280;-72
2021/10/13 10:16:02;;;;;;;5.73;3.10;;;;;;;11.24;100.00;101550.44;5011889;28;20232;-72
2021/10/13 10:18:35;;;;;;;3.53;3.23;;;;;;;11.19;100.00;101542.22;4988106;28;20205;-72
2021/10/13 10:21:27;;;;;;;5.67;3.47;;;;;;;11.51;100.00;101552.13;4990344;28;20225;-72
2021/10/13 10:24:21;;;;;;;4.67;3.50;;;;;;;11.95;100.00;101538.94;4974868;28;20206;-72
2021/10/13 10:26:48;;;;;;;4.00;3.33;;;;;;;12.26;100.00;101548.19;4980549;28;20228;-72
2021/10/13 10:29:15;;;;;;;5.40;4.00;;;;;;;12.36;100.00;101541.72;4978840;28;20181;-72
2021/10/13 10:31:59;;;;;;;4.33;3.20;;;;;;;12.54;100.00;101541.28;4993933;28;20241;-73
2021/10/13 10:34:25;;;;;;;3.97;2.73;;;;;;;12.41;100.00;101533.56;4996651;28;20180;-72
2021/10/13 10:36:50;;;;;;;3.50;2.90;;;;;;;12.50;100.00;101537.44;4993817;28;20232;-72
2021/10/13 10:39:19;;;;;;;5.63;2.80;;;;;;;12.71;100.00;101534.59;5010392;28;20212;-72
2021/10/13 10:41:44;;;;;;;3.77;3.00;;;;;;;12.40;100.00;101547.47;4959145;28;20225;-72
2021/10/13 10:44:32;;;;;;;3.80;2.87;;;;;;;12.36;100.00;101546.34;5009347;28;20187;-72
2021/10/13 10:47:01;;;;;;;3.70;2.90;;;;;;;12.50;100.00;101539.34;4993347;28;20716;-72
2021/10/13 10:49:49;;;;;;;4.40;3.10;;;;;;;12.88;100.00;101534.44;4995871;28;20286;-71
2021/10/13 10:52:25;;;;;;;5.17;3.10;;;;;;;12.81;100.00;101539.28;4993126;28;20220;-71
2021/10/13 10:54:54;;;;;;;5.70;3.03;;;;;;;13.08;100.00;101530.69;4994196;28;20221;-71
2021/10/13 10:57:36;;;;;;;5.73;3.20;;;;;;;12.98;100.00;101535.28;4998698;28;20217;-71
2021/10/13 11:00:06;;;;;;;4.27;3.20;;;;;;;12.83;100.00;101535.22;4978004;28;20216;-71
2021/10/13 11:02:32;;;;;;;4.17;3.10;;;;;;;13.42;100.00;101534.59;4991901;28;20213;-72
2021/10/13 11:05:10;;;;;;;4.60;3.40;;;;;;;13.80;100.00;101542.34;4993596;28;20189;-72
2021/10/13 11:07:37;;;;;;;4.40;4.00;;;;;;;13.45;100.00;101551.28;4993631;28;20208;-72
2021/10/13 11:10:06;;;;;;;6.73;6.00;;;;;;;13.29;100.00;101545.22;4994218;28;20243;-72
2021/10/13 11:12:48;;;;;;;5.97;5.20;;;;;;;13.29;100.00;101548.75;4961506;28;20224;-71
2021/10/13 11:15:15;;;;;;;3.87;2.70;;;;;;;13.19;100.00;101551.47;4977809;28;20689;-70
2021/10/13 11:17:40;;;;;;;5.37;2.40;;;;;;;12.94;100.00;101561.44;5011134;28;20181;-72
2021/10/13 11:20:18;;;;;;;2.60;2.10;;;;;;;13.27;100.00;101547.41;5009918;28;20209;-71
2021/10/13 11:22:46;;;;;;;4.63;2.20;;;;;;;13.29;100.00;101556.13;4994896;28;20188;-71
2021/10/13 11:25:19;;;;;;;4.77;2.27;;;;;;;13.56;100.00;101561.13;4979090;28;20188;-72
2021/10/13 11:27:57;;;;;;;3.70;2.20;;;;;;;14.05;100.00;101554.13;4994080;28;20585;-68